createdAt,value
2019-04-23T00:00:15.859Z,51.65
2019-04-23T00:01:07.906Z,51.93
2019-04-23T00:01:55.567Z,51.93
2019-04-23T00:02:58.870Z,51.36
2019-04-23T00:03:51.870Z,51.75
2019-04-23T00:04:53.051Z,51.93
2019-04-23T00:09:23.876Z,51.93
2019-04-23T00:10:03.461Z,51.93
2019-04-23T00:10:58.456Z,52.03
2019-04-23T00:11:59.852Z,51.84
2019-04-23T00:12:53.049Z,51.93
2019-04-23T00:14:03.567Z,51.93
2019-04-23T00:15:04.833Z,51.93
2019-04-23T00:16:04.996Z,51.93
2019-04-23T00:16:57.815Z,51.84
2019-04-23T00:17:57.240Z,51.93
2019-04-23T00:18:49.351Z,51.91
2019-04-23T00:20:03.384Z,51.84
2019-04-23T00:20:57.184Z,51.62
2019-04-23T00:22:00.317Z,51.84
2019-04-23T00:23:02.107Z,51.65
2019-04-23T00:24:10.334Z,52.29
2019-04-23T00:26:16.269Z,52.39
2019-04-23T00:27:06.224Z,52.39
2019-04-23T00:28:01.707Z,52.48
2019-04-23T00:29:08.403Z,52.10
2019-04-23T00:30:10.336Z,52.29
2019-04-23T00:32:05.070Z,52.39
2019-04-23T00:33:04.023Z,52.20
2019-04-23T00:33:56.648Z,51.91
2019-04-23T00:35:02.514Z,52.20
2019-04-23T00:35:55.057Z,52.58
2019-04-23T00:37:08.374Z,52.29
2019-04-23T00:38:05.897Z,52.10
2019-04-23T00:38:55.817Z,52.20
2019-04-23T00:39:56.766Z,52.20
2019-04-23T00:40:58.218Z,52.01
2019-04-23T00:42:05.045Z,52.39
2019-04-23T00:43:02.006Z,52.39
2019-04-23T00:44:17.220Z,52.10
2019-04-23T00:44:58.682Z,52.67
2019-04-23T00:45:56.428Z,52.58
2019-04-23T00:46:54.441Z,52.48
2019-04-23T00:47:54.750Z,52.58
2019-04-23T00:50:07.719Z,51.91
2019-04-23T00:50:54.317Z,52.48
2019-04-23T00:51:58.485Z,52.48
2019-04-23T00:52:57.612Z,52.01
2019-04-23T00:54:02.231Z,51.91
2019-04-23T00:55:09.956Z,52.10
2019-04-23T00:57:00.683Z,52.48
2019-04-23T00:58:08.481Z,52.20
2019-04-23T00:59:03.984Z,52.20
2019-04-23T01:00:23.812Z,52.10
2019-04-23T01:01:00.360Z,52.10
2019-04-23T01:03:06.092Z,52.39
2019-04-23T01:04:02.804Z,52.20
2019-04-23T01:05:03.639Z,52.01
2019-04-23T01:06:02.626Z,52.20
2019-04-23T01:06:58.038Z,52.29
2019-04-23T01:08:01.838Z,52.20
2019-04-23T01:09:15.277Z,52.48
2019-04-23T01:09:59.704Z,52.67
2019-04-23T01:12:02.747Z,52.29
2019-04-23T01:12:59.727Z,52.48
2019-04-23T01:14:03.875Z,52.77
2019-04-23T01:15:06.911Z,52.48
2019-04-23T01:16:04.493Z,52.58
2019-04-23T01:17:02.205Z,52.55
2019-04-23T01:18:05.148Z,52.26
2019-04-23T01:18:58.226Z,52.10
2019-04-23T01:20:17.623Z,52.48
2019-04-23T01:20:54.787Z,52.26
2019-04-23T01:21:39.109Z,52.36
2019-04-23T01:22:40.198Z,52.46
2019-04-23T01:23:44.358Z,52.36
2019-04-23T01:24:40.831Z,52.26
2019-04-23T01:25:51.684Z,52.08
2019-04-23T01:27:18.485Z,52.55
2019-04-23T01:28:02.489Z,52.26
2019-04-23T01:29:05.257Z,52.65
2019-04-23T01:31:09.217Z,52.36
2019-04-23T01:32:08.627Z,52.46
2019-04-23T01:33:03.896Z,52.17
2019-04-23T01:34:04.634Z,52.55
2019-04-23T01:35:15.228Z,52.55
2019-04-23T01:36:20.613Z,52.46
2019-04-23T01:37:03.926Z,52.46
2019-04-23T01:38:06.084Z,52.46
2019-04-23T01:39:06.494Z,52.46
2019-04-23T01:40:03.757Z,52.55
2019-04-23T01:41:09.531Z,52.36
2019-04-23T01:42:16.572Z,52.65
2019-04-23T01:43:02.960Z,52.46
2019-04-23T01:43:55.247Z,52.08
2019-04-23T01:45:07.319Z,52.55
2019-04-23T01:46:09.539Z,52.36
2019-04-23T01:47:07.721Z,52.36
2019-04-23T01:48:00.191Z,52.36
2019-04-23T01:49:05.917Z,52.84
2019-04-23T01:50:20.187Z,52.46
2019-04-23T01:52:12.843Z,52.75
2019-04-23T01:53:14.595Z,52.84
2019-04-23T01:54:02.927Z,52.55
2019-04-23T01:55:11.736Z,52.62
2019-04-23T01:56:04.823Z,52.55
2019-04-23T01:57:11.136Z,52.84
2019-04-23T01:58:30.194Z,52.46
2019-04-23T01:59:07.893Z,52.62
2019-04-23T02:00:14.108Z,52.53
2019-04-23T02:01:08.595Z,53.10
2019-04-23T02:02:08.339Z,52.72
2019-04-23T02:03:09.069Z,52.81
2019-04-23T02:04:10.013Z,53.10
2019-04-23T02:05:09.034Z,52.81
2019-04-23T02:06:20.428Z,52.53
2019-04-23T02:07:06.212Z,52.62
2019-04-23T02:09:06.561Z,52.15
2019-04-23T02:10:14.619Z,52.24
2019-04-23T02:12:07.656Z,52.34
2019-04-23T02:13:11.127Z,52.62
2019-04-23T02:14:21.240Z,52.24
2019-04-23T02:15:13.814Z,52.34
2019-04-23T02:16:05.097Z,52.43
2019-04-23T02:17:13.652Z,52.43
2019-04-23T02:19:14.697Z,52.43
2019-04-23T02:20:25.473Z,52.24
2019-04-23T02:21:08.563Z,51.95
2019-04-23T02:22:06.564Z,52.24
2019-04-23T02:23:11.664Z,52.34
2019-04-23T02:24:15.892Z,52.05
2019-04-23T02:25:16.246Z,52.43
2019-04-23T02:26:02.712Z,52.43
2019-04-23T02:27:12.199Z,52.24
2019-04-23T02:30:31.106Z,52.53
2019-04-23T02:34:21.691Z,52.05
2019-04-23T02:35:17.302Z,52.05
2019-04-23T02:36:23.886Z,52.24
2019-04-23T02:39:29.317Z,52.43
2019-04-23T02:44:16.627Z,52.05
2019-04-23T02:45:16.959Z,52.24
2019-04-23T02:46:09.060Z,52.24
2019-04-23T02:47:18.614Z,52.53
2019-04-23T02:48:19.056Z,52.43
2019-04-23T02:49:18.202Z,52.43
2019-04-23T02:50:31.140Z,52.43
2019-04-23T02:51:18.090Z,52.34
2019-04-23T02:52:18.464Z,52.34
2019-04-23T02:53:36.049Z,52.40
2019-04-23T02:54:27.169Z,52.53
2019-04-23T02:55:18.081Z,52.31
2019-04-23T02:56:24.242Z,52.59
2019-04-23T02:58:21.581Z,52.22
2019-04-23T02:58:21.782Z,52.05
2019-04-23T02:59:21.858Z,52.40
2019-04-23T03:02:24.393Z,52.31
2019-04-23T03:03:14.031Z,52.50
2019-04-23T03:04:19.816Z,52.22
2019-04-23T03:05:24.951Z,52.40
2019-04-23T03:06:18.906Z,52.50
2019-04-23T03:08:17.077Z,52.31
2019-04-23T03:09:27.863Z,52.50
2019-04-23T03:10:18.471Z,52.31
2019-04-23T03:12:35.019Z,52.12
2019-04-23T03:15:32.086Z,52.03
2019-04-23T03:17:13.302Z,52.40
2019-04-23T03:18:40.129Z,52.31
2019-04-23T03:20:22.198Z,52.31
2019-04-23T03:21:31.326Z,51.74
2019-04-23T03:22:06.057Z,52.31
2019-04-23T03:24:25.128Z,51.83
2019-04-23T03:25:20.533Z,51.54
2019-04-23T03:26:25.201Z,51.54
2019-04-23T03:28:21.254Z,51.54
2019-04-23T03:29:19.642Z,51.93
2019-04-23T03:30:30.100Z,51.93
2019-04-23T03:32:48.352Z,51.83
2019-04-23T03:34:13.629Z,51.93
2019-04-23T03:35:16.034Z,51.64
2019-04-23T03:38:36.326Z,51.45
2019-04-23T03:39:05.822Z,51.54
2019-04-23T03:40:13.870Z,51.64
2019-04-23T03:41:25.788Z,51.74
2019-04-23T03:43:14.563Z,51.35
2019-04-23T03:44:12.599Z,51.45
2019-04-23T03:46:24.152Z,51.17
2019-04-23T03:47:18.870Z,51.07
2019-04-23T03:49:15.043Z,50.98
2019-04-23T03:50:25.873Z,51.64
2019-04-23T03:51:18.644Z,51.26
2019-04-23T03:52:21.318Z,51.33
2019-04-23T03:53:25.952Z,51.64
2019-04-23T03:55:19.063Z,51.26
2019-04-23T03:57:22.339Z,51.52
2019-04-23T03:58:19.183Z,51.62
2019-04-23T03:59:20.267Z,52.03
2019-04-23T04:00:31.099Z,51.52
2019-04-23T04:01:26.701Z,51.83
2019-04-23T04:04:31.696Z,51.81
2019-04-23T04:05:22.273Z,51.81
2019-04-23T04:07:43.827Z,51.52
2019-04-23T04:08:18.423Z,51.52
2019-04-23T04:09:26.043Z,51.52
2019-04-23T04:11:14.234Z,50.76
2019-04-23T04:12:21.735Z,50.95
2019-04-23T04:13:22.182Z,50.85
2019-04-23T04:15:33.278Z,50.76
2019-04-23T04:17:28.243Z,50.85
2019-04-23T04:19:29.419Z,50.85
2019-04-23T04:20:28.962Z,50.57
2019-04-23T04:23:33.067Z,50.57
2019-04-23T04:24:27.498Z,50.67
2019-04-23T04:25:37.155Z,50.85
2019-04-23T04:26:23.131Z,50.57
2019-04-23T04:27:26.477Z,50.67
2019-04-23T04:28:17.606Z,50.38
2019-04-23T04:29:32.493Z,50.57
2019-04-23T04:30:23.676Z,50.57
2019-04-23T04:31:35.081Z,50.47
2019-04-23T04:32:12.017Z,50.57
2019-04-23T04:33:30.005Z,50.47
2019-04-23T04:37:37.782Z,50.67
2019-04-23T04:38:38.359Z,50.47
2019-04-23T04:39:19.682Z,50.38
2019-04-23T04:42:14.673Z,50.57
2019-04-23T04:45:30.401Z,50.47
2019-04-23T04:47:25.747Z,49.99
2019-04-23T04:48:18.118Z,50.76
2019-04-23T04:50:31.349Z,50.76
2019-04-23T04:51:37.919Z,50.38
2019-04-23T04:52:44.719Z,50.28
2019-04-23T04:53:43.811Z,50.38
2019-04-23T04:54:17.845Z,50.57
2019-04-23T04:56:20.910Z,50.09
2019-04-23T04:58:27.648Z,49.90
2019-04-23T04:59:18.172Z,50.47
2019-04-23T05:00:20.248Z,50.47
2019-04-23T05:02:30.393Z,49.52
2019-04-23T05:03:25.863Z,49.80
2019-04-23T05:04:26.928Z,49.71
2019-04-23T05:08:26.262Z,49.62
2019-04-23T05:09:43.952Z,49.62
2019-04-23T05:12:19.081Z,49.80
2019-04-23T05:14:13.426Z,49.71
2019-04-23T05:15:16.531Z,49.99
2019-04-23T05:16:29.471Z,49.80
2019-04-23T05:17:24.018Z,49.71
2019-04-23T05:21:24.680Z,49.23
2019-04-23T05:22:17.093Z,49.23
2019-04-23T05:23:19.405Z,49.04
2019-04-23T05:24:16.295Z,49.04
2019-04-23T05:25:12.596Z,48.94
2019-04-23T05:26:17.443Z,48.66
2019-04-23T05:27:16.096Z,48.94
2019-04-23T05:28:16.930Z,48.85
2019-04-23T05:29:11.955Z,49.04
2019-04-23T05:30:15.449Z,48.75
2019-04-23T05:31:23.291Z,48.94
2019-04-23T05:32:14.745Z,48.75
2019-04-23T05:33:17.337Z,48.47
2019-04-23T05:34:12.888Z,48.57
2019-04-23T05:35:27.814Z,48.78
2019-04-23T05:36:26.302Z,48.49
2019-04-23T05:37:17.048Z,48.59
2019-04-23T05:40:25.473Z,48.39
2019-04-23T05:41:16.988Z,48.37
2019-04-23T05:42:10.629Z,48.30
2019-04-23T05:43:12.651Z,48.21
2019-04-23T05:44:15.831Z,48.30
2019-04-23T05:45:19.352Z,48.21
2019-04-23T05:46:23.694Z,48.30
2019-04-23T05:49:12.765Z,48.30
2019-04-23T05:50:21.599Z,47.92
2019-04-23T05:52:16.955Z,48.21
2019-04-23T05:53:21.590Z,48.39
2019-04-23T05:55:13.677Z,48.11
2019-04-23T05:56:13.303Z,48.02
2019-04-23T05:57:32.865Z,47.92
2019-04-23T05:58:22.145Z,48.02
2019-04-23T06:00:16.116Z,48.02
2019-04-23T06:01:39.364Z,47.92
2019-04-23T06:02:19.792Z,47.92
2019-04-23T06:03:19.524Z,48.21
2019-04-23T06:04:19.175Z,48.02
2019-04-23T06:05:19.741Z,48.11
2019-04-23T06:06:20.937Z,47.73
2019-04-23T06:07:28.685Z,47.92
2019-04-23T06:08:17.843Z,47.63
2019-04-23T06:10:11.309Z,47.34
2019-04-23T06:11:26.133Z,47.34
2019-04-23T06:12:15.387Z,47.63
2019-04-23T06:13:19.465Z,47.54
2019-04-23T06:15:11.480Z,47.44
2019-04-23T06:16:22.333Z,47.06
2019-04-23T06:17:15.272Z,47.54
2019-04-23T06:18:22.521Z,47.54
2019-04-23T06:20:18.210Z,47.34
2019-04-23T06:21:17.258Z,47.54
2019-04-23T06:22:22.376Z,48.39
2019-04-23T06:23:25.246Z,51.54
2019-04-23T06:25:33.851Z,49.09
2019-04-23T06:26:24.358Z,48.61
2019-04-23T06:27:19.314Z,47.94
2019-04-23T06:28:22.426Z,48.52
2019-04-23T06:29:21.007Z,48.04
2019-04-23T06:30:19.308Z,48.04
2019-04-23T06:31:24.789Z,47.97
2019-04-23T06:32:14.366Z,47.87
2019-04-23T06:33:21.120Z,47.68
2019-04-23T06:35:11.854Z,46.92
2019-04-23T06:36:23.998Z,47.97
2019-04-23T06:37:18.349Z,48.07
2019-04-23T06:38:40.426Z,47.58
2019-04-23T06:39:26.407Z,46.27
2019-04-23T06:40:13.928Z,46.17
2019-04-23T06:41:15.659Z,45.51
2019-04-23T06:42:11.346Z,44.93
2019-04-23T06:43:22.587Z,44.84
2019-04-23T06:44:19.185Z,44.17
2019-04-23T06:45:14.467Z,44.65
2019-04-23T06:46:24.284Z,44.55
2019-04-23T06:47:16.764Z,44.74
2019-04-23T06:49:20.375Z,44.74
2019-04-23T06:50:17.699Z,44.74
2019-04-23T06:51:20.135Z,44.45
2019-04-23T06:52:18.725Z,44.26
2019-04-23T06:53:12.616Z,44.17
2019-04-23T06:54:18.794Z,44.26
2019-04-23T06:55:18.573Z,44.07
2019-04-23T06:56:19.157Z,44.07
2019-04-23T06:58:19.497Z,44.36
2019-04-23T06:59:17.429Z,44.84
2019-04-23T07:00:13.272Z,44.55
2019-04-23T07:01:11.454Z,44.93
2019-04-23T07:04:17.343Z,44.65
2019-04-23T07:05:16.170Z,44.26
2019-04-23T07:06:23.577Z,44.07
2019-04-23T07:07:36.498Z,44.07
2019-04-23T07:08:22.525Z,44.26
2019-04-23T07:09:18.111Z,44.17
2019-04-23T07:10:18.447Z,43.98
2019-04-23T07:12:15.048Z,44.19
2019-04-23T07:13:20.635Z,44.00
2019-04-23T07:14:21.906Z,44.00
2019-04-23T07:15:32.211Z,44.19
2019-04-23T07:17:16.964Z,43.62
2019-04-23T07:18:19.028Z,44.09
2019-04-23T07:21:17.798Z,43.23
2019-04-23T07:22:20.933Z,43.43
2019-04-23T07:23:24.542Z,43.52
2019-04-23T07:24:28.777Z,44.00
2019-04-23T07:25:17.304Z,43.90
2019-04-23T07:27:19.090Z,43.62
2019-04-23T07:28:17.997Z,43.52
2019-04-23T07:29:18.909Z,43.52
2019-04-23T07:30:32.825Z,43.04
2019-04-23T07:31:24.374Z,43.04
2019-04-23T07:32:17.644Z,43.04
2019-04-23T07:33:18.880Z,43.14
2019-04-23T07:34:15.678Z,42.87
2019-04-23T07:36:23.484Z,43.26
2019-04-23T07:37:20.285Z,43.16
2019-04-23T07:38:28.623Z,43.16
2019-04-23T07:39:38.815Z,43.06
2019-04-23T07:41:23.723Z,42.97
2019-04-23T07:43:14.461Z,43.06
2019-04-23T07:44:46.912Z,42.87
2019-04-23T07:46:30.719Z,42.40
2019-04-23T07:48:14.926Z,42.70
2019-04-23T07:49:18.083Z,42.70
2019-04-23T07:51:19.504Z,42.41
2019-04-23T07:52:27.652Z,42.60
2019-04-23T07:53:17.170Z,42.41
2019-04-23T07:54:22.765Z,42.22
2019-04-23T07:55:28.405Z,42.32
2019-04-23T07:58:23.433Z,41.94
2019-04-23T07:59:25.357Z,42.32
2019-04-23T08:00:18.228Z,42.34
2019-04-23T08:01:23.044Z,42.34
2019-04-23T08:02:26.177Z,42.24
2019-04-23T08:04:16.673Z,41.57
2019-04-23T08:05:22.853Z,41.86
2019-04-23T08:06:30.895Z,41.77
2019-04-23T08:07:19.914Z,41.57
2019-04-23T08:08:30.453Z,41.67
2019-04-23T08:09:22.347Z,41.48
2019-04-23T08:10:22.806Z,41.38
2019-04-23T08:13:21.550Z,41.21
2019-04-23T08:14:17.053Z,40.92
2019-04-23T08:15:23.651Z,40.64
2019-04-23T08:16:32.981Z,40.54
2019-04-23T08:17:16.107Z,40.64
2019-04-23T08:18:25.070Z,40.25
2019-04-23T08:19:25.136Z,40.35
2019-04-23T08:20:24.702Z,40.73
2019-04-23T08:22:28.291Z,40.27
2019-04-23T08:23:16.498Z,40.17
2019-04-23T08:24:17.131Z,39.79
2019-04-23T08:25:19.216Z,39.79
2019-04-23T08:26:28.054Z,39.22
2019-04-23T08:27:19.662Z,38.93
2019-04-23T08:28:29.049Z,39.12
2019-04-23T08:29:28.059Z,38.83
2019-04-23T08:30:17.359Z,38.74
2019-04-23T08:31:22.020Z,39.31
2019-04-23T08:32:21.309Z,39.50
2019-04-23T08:33:17.439Z,39.50
2019-04-23T08:35:17.679Z,40.47
2019-04-23T08:36:23.710Z,40.29
2019-04-23T08:37:25.306Z,40.39
2019-04-23T08:39:18.283Z,39.14
2019-04-23T08:40:20.674Z,38.85
2019-04-23T08:41:28.423Z,39.06
2019-04-23T08:43:32.962Z,38.68
2019-04-23T08:46:24.768Z,38.78
2019-04-23T08:48:27.788Z,38.87
2019-04-23T08:50:21.658Z,38.10
2019-04-23T08:52:18.693Z,37.84
2019-04-23T08:54:26.589Z,37.64
2019-04-23T08:55:21.060Z,37.64
2019-04-23T08:56:24.085Z,37.55
2019-04-23T08:57:22.702Z,37.55
2019-04-23T08:58:25.137Z,37.45
2019-04-23T08:59:33.142Z,37.35
2019-04-23T09:00:23.109Z,37.84
2019-04-23T09:01:17.295Z,37.74
2019-04-23T09:02:30.568Z,37.07
2019-04-23T09:04:26.979Z,37.08
2019-04-23T09:05:23.461Z,36.90
2019-04-23T09:06:20.298Z,36.60
2019-04-23T09:07:22.112Z,36.51
2019-04-23T09:08:25.338Z,36.60
2019-04-23T09:09:29.152Z,36.60
2019-04-23T09:10:29.782Z,36.53
2019-04-23T09:11:40.385Z,36.03
2019-04-23T09:12:24.148Z,35.95
2019-04-23T09:14:08.833Z,35.95
2019-04-23T09:15:25.512Z,35.95
2019-04-23T09:16:32.610Z,35.85
2019-04-23T09:18:21.329Z,35.08
2019-04-23T09:19:25.820Z,34.72
2019-04-23T09:21:23.945Z,34.53
2019-04-23T09:23:32.942Z,34.62
2019-04-23T09:24:22.349Z,34.72
2019-04-23T09:25:28.372Z,34.81
2019-04-23T09:26:11.036Z,34.33
2019-04-23T09:28:28.586Z,34.81
2019-04-23T09:29:36.609Z,34.05
2019-04-23T09:30:25.633Z,33.85
2019-04-23T09:31:38.209Z,34.62
2019-04-23T09:33:25.859Z,34.25
2019-04-23T09:34:18.890Z,34.16
2019-04-23T09:36:21.889Z,33.97
2019-04-23T09:37:26.484Z,33.59
2019-04-23T09:38:34.554Z,33.79
2019-04-23T09:39:20.435Z,33.59
2019-04-23T09:41:02.904Z,33.31
2019-04-23T09:41:22.309Z,33.12
2019-04-23T09:42:34.398Z,32.44
2019-04-23T09:43:22.722Z,32.82
2019-04-23T09:44:42.627Z,32.73
2019-04-23T09:45:22.864Z,32.44
2019-04-23T09:46:25.639Z,32.36
2019-04-23T09:47:26.434Z,32.17
2019-04-23T09:48:18.124Z,32.36
2019-04-23T09:49:26.364Z,32.25
2019-04-23T09:50:24.019Z,32.17
2019-04-23T09:51:24.336Z,32.25
2019-04-23T09:52:27.087Z,31.88
2019-04-23T09:53:33.817Z,32.06
2019-04-23T09:54:27.182Z,32.36
2019-04-23T09:55:30.016Z,32.36
2019-04-23T09:56:22.486Z,32.36
2019-04-23T09:57:20.442Z,32.46
2019-04-23T09:58:16.731Z,31.88
2019-04-23T10:00:31.173Z,31.90
2019-04-23T10:02:20.125Z,31.22
2019-04-23T10:03:09.108Z,30.64
2019-04-23T10:04:08.735Z,30.74
2019-04-23T10:05:11.229Z,30.83
2019-04-23T10:06:04.188Z,30.56
2019-04-23T10:07:11.567Z,30.64
2019-04-23T10:08:05.036Z,30.26
2019-04-23T10:08:58.624Z,30.76
2019-04-23T10:09:57.352Z,30.46
2019-04-23T10:10:57.459Z,30.66
2019-04-23T10:11:56.181Z,30.46
2019-04-23T10:12:58.003Z,30.56
2019-04-23T10:13:56.608Z,30.56
2019-04-23T10:15:05.660Z,30.76
2019-04-23T10:15:58.050Z,30.66
2019-04-23T10:16:57.933Z,30.18
2019-04-23T10:17:56.436Z,30.00
2019-04-23T10:18:57.367Z,30.10
2019-04-23T10:19:56.470Z,29.71
2019-04-23T10:20:56.587Z,29.90
2019-04-23T10:21:57.500Z,29.80
2019-04-23T10:22:56.854Z,29.80
2019-04-23T10:23:57.110Z,30.00
2019-04-23T10:24:57.182Z,30.19
2019-04-23T10:25:58.171Z,30.19
2019-04-23T10:26:57.805Z,29.80
2019-04-23T10:28:01.141Z,29.91
2019-04-23T10:28:58.195Z,29.82
2019-04-23T10:29:56.836Z,29.82
2019-04-23T10:30:56.872Z,29.82
2019-04-23T10:31:57.767Z,29.14
2019-04-23T10:32:57.871Z,28.58
2019-04-23T10:33:57.962Z,28.85
2019-04-23T10:35:13.504Z,28.66
2019-04-23T10:36:04.366Z,29.06
2019-04-23T10:36:57.639Z,29.06
2019-04-23T10:38:04.156Z,29.06
2019-04-23T10:39:03.559Z,28.87
2019-04-23T10:40:00.894Z,28.77
2019-04-23T10:40:58.087Z,28.98
2019-04-23T10:41:59.628Z,28.11
2019-04-23T10:42:59.718Z,28.00
2019-04-23T10:43:58.685Z,28.09
2019-04-23T10:45:10.959Z,27.91
2019-04-23T10:46:16.897Z,28.48
2019-04-23T10:47:23.765Z,28.09
2019-04-23T10:48:46.965Z,28.30
2019-04-23T10:49:42.780Z,28.40
2019-04-23T10:50:31.817Z,28.02
2019-04-23T10:51:30.620Z,28.59
2019-04-23T10:52:36.396Z,28.02
2019-04-23T10:55:38.512Z,28.11
2019-04-23T10:56:37.708Z,28.11
2019-04-23T10:57:26.482Z,28.11
2019-04-23T10:59:28.774Z,28.50
2019-04-23T11:00:23.951Z,28.11
2019-04-23T11:01:27.988Z,28.11
2019-04-23T11:03:41.944Z,28.11
2019-04-23T11:04:39.848Z,28.11
2019-04-23T11:05:35.969Z,28.11
2019-04-23T11:06:30.799Z,27.93
2019-04-23T11:07:38.812Z,28.03
2019-04-23T11:08:24.044Z,28.03
2019-04-23T11:09:53.052Z,27.83
2019-04-23T11:10:25.931Z,28.13
2019-04-23T11:11:27.862Z,27.75
2019-04-23T11:12:37.055Z,28.14
2019-04-23T11:13:32.046Z,27.85
2019-04-23T11:14:31.033Z,27.75
2019-04-23T11:15:33.522Z,27.26
2019-04-23T11:17:36.324Z,26.99
2019-04-23T11:18:38.303Z,26.99
2019-04-23T11:19:32.291Z,26.70
2019-04-23T11:21:38.466Z,26.99
2019-04-23T11:23:29.537Z,26.79
2019-04-23T11:24:38.048Z,26.89
2019-04-23T11:25:31.801Z,26.89
2019-04-23T11:26:38.798Z,26.62
2019-04-23T11:27:31.266Z,26.62
2019-04-23T11:28:26.067Z,25.74
2019-04-23T11:29:35.693Z,25.94
2019-04-23T11:30:32.526Z,25.94
2019-04-23T11:31:48.722Z,25.94
2019-04-23T11:32:48.346Z,26.52
2019-04-23T11:33:34.111Z,26.63
2019-04-23T11:34:51.630Z,26.63
2019-04-23T11:36:47.914Z,25.66
2019-04-23T11:37:41.156Z,25.47
2019-04-23T11:38:50.786Z,25.76
2019-04-23T11:39:32.454Z,25.76
2019-04-23T11:41:32.311Z,25.27
2019-04-23T11:42:34.788Z,25.58
2019-04-23T11:43:29.190Z,25.66
2019-04-23T11:44:34.317Z,25.67
2019-04-23T11:46:46.101Z,25.56
2019-04-23T11:49:51.114Z,25.47
2019-04-23T11:52:36.642Z,25.27
2019-04-23T11:53:34.082Z,25.66
2019-04-23T11:54:30.926Z,25.66
2019-04-23T11:55:39.183Z,25.56
2019-04-23T11:56:53.893Z,25.56
2019-04-23T11:57:52.560Z,25.76
2019-04-23T11:58:34.079Z,25.87
2019-04-23T12:00:38.968Z,25.27
2019-04-23T12:01:42.265Z,24.98
2019-04-23T12:02:22.042Z,25.67
2019-04-23T12:03:29.756Z,25.67
2019-04-23T12:05:35.444Z,25.47
2019-04-23T12:06:30.144Z,25.47
2019-04-23T12:07:32.659Z,25.77
2019-04-23T12:08:37.827Z,24.98
2019-04-23T12:09:43.045Z,25.38
2019-04-23T12:10:43.006Z,24.90
2019-04-23T12:11:52.709Z,24.71
2019-04-23T12:12:33.247Z,24.90
2019-04-23T12:13:35.912Z,25.18
2019-04-23T12:15:32.123Z,24.90
2019-04-23T12:16:40.695Z,25.29
2019-04-23T12:17:33.167Z,24.88
2019-04-23T12:18:35.390Z,24.98
2019-04-23T12:20:33.757Z,24.88
2019-04-23T12:21:37.984Z,24.90
2019-04-23T12:22:29.601Z,24.98
2019-04-23T12:23:40.612Z,24.99
2019-04-23T12:25:04.342Z,24.90
2019-04-23T12:26:39.025Z,24.80
2019-04-23T12:27:27.592Z,24.80
2019-04-23T12:28:30.131Z,24.90
2019-04-23T12:29:33.601Z,24.71
2019-04-23T12:30:33.625Z,25.09
2019-04-23T12:31:34.274Z,24.80
2019-04-23T12:33:36.483Z,24.80
2019-04-23T12:34:41.740Z,24.90
2019-04-23T12:35:28.977Z,24.51
2019-04-23T12:36:36.968Z,24.71
2019-04-23T12:37:34.665Z,24.61
2019-04-23T12:38:28.375Z,24.71
2019-04-23T12:39:36.246Z,24.03
2019-04-23T12:41:29.933Z,25.09
2019-04-23T12:42:48.806Z,24.80
2019-04-23T12:43:25.649Z,24.90
2019-04-23T12:44:31.314Z,24.90
2019-04-23T12:46:38.452Z,24.61
2019-04-23T12:47:46.442Z,24.61
2019-04-23T12:48:45.025Z,24.61
2019-04-23T12:50:44.889Z,25.19
2019-04-23T12:51:43.371Z,24.88
2019-04-23T12:52:34.173Z,25.47
2019-04-23T12:54:41.057Z,25.47
2019-04-23T12:56:43.948Z,25.76
2019-04-23T12:57:35.757Z,25.56
2019-04-23T12:58:45.184Z,25.55
2019-04-23T12:59:30.524Z,25.46
2019-04-23T13:00:35.113Z,25.94
2019-04-23T13:01:38.135Z,25.73
2019-04-23T13:02:41.181Z,26.21
2019-04-23T13:03:29.885Z,26.31
2019-04-23T13:04:32.224Z,26.31
2019-04-23T13:06:27.111Z,26.61
2019-04-23T13:07:47.182Z,26.70
2019-04-23T13:09:44.347Z,26.78
2019-04-23T13:10:32.541Z,27.08
2019-04-23T13:14:41.557Z,27.26
2019-04-23T13:15:29.317Z,27.46
2019-04-23T13:16:37.726Z,27.17
2019-04-23T13:17:47.428Z,27.66
2019-04-23T13:18:34.093Z,27.94
2019-04-23T13:19:40.119Z,28.23
2019-04-23T13:21:53.579Z,27.94
2019-04-23T13:23:41.119Z,28.23
2019-04-23T13:24:33.137Z,28.04
2019-04-23T13:25:34.819Z,28.52
2019-04-23T13:26:27.968Z,28.72
2019-04-23T13:27:38.597Z,28.61
2019-04-23T13:28:34.676Z,28.70
2019-04-23T13:29:38.070Z,28.51
2019-04-23T13:31:30.029Z,28.61
2019-04-23T13:32:38.922Z,27.94
2019-04-23T13:34:42.900Z,28.04
2019-04-23T13:35:54.955Z,27.94
2019-04-23T13:37:36.611Z,28.31
2019-04-23T13:38:38.510Z,28.61
2019-04-23T13:39:33.234Z,28.51
2019-04-23T13:42:40.371Z,28.13
2019-04-23T13:43:43.753Z,27.93
2019-04-23T13:44:39.472Z,28.51
2019-04-23T13:45:53.580Z,28.22
2019-04-23T13:46:28.879Z,28.13
2019-04-23T13:47:53.444Z,28.61
2019-04-23T13:48:24.351Z,29.09
2019-04-23T13:49:36.770Z,29.17
2019-04-23T13:50:43.301Z,28.98
2019-04-23T13:51:35.837Z,29.46
2019-04-23T13:53:05.412Z,29.85
2019-04-23T13:53:42.596Z,29.56
2019-04-23T13:54:54.868Z,29.94
2019-04-23T13:55:32.104Z,29.94
2019-04-23T13:57:59.198Z,30.12
2019-04-23T13:58:36.323Z,30.32
2019-04-23T13:59:39.455Z,30.70
2019-04-23T14:00:52.592Z,30.70
2019-04-23T14:01:34.735Z,30.41
2019-04-23T14:02:37.247Z,30.61
2019-04-23T14:03:50.506Z,30.70
2019-04-23T14:04:41.658Z,30.88
2019-04-23T14:05:33.118Z,31.46
2019-04-23T14:06:37.322Z,31.17
2019-04-23T14:07:38.568Z,31.37
2019-04-23T14:08:48.601Z,31.56
2019-04-23T14:09:50.727Z,31.94
2019-04-23T14:10:34.173Z,31.94
2019-04-23T14:11:40.414Z,32.14
2019-04-23T14:12:41.786Z,32.21
2019-04-23T14:13:44.009Z,32.33
2019-04-23T14:14:41.383Z,32.31
2019-04-23T14:15:41.416Z,32.60
2019-04-23T14:16:56.191Z,32.51
2019-04-23T14:17:46.889Z,33.09
2019-04-23T14:19:28.887Z,33.47
2019-04-23T14:20:32.168Z,33.57
2019-04-23T14:21:30.862Z,33.57
2019-04-23T14:23:00.224Z,33.95
2019-04-23T14:23:57.728Z,34.70
2019-04-23T14:24:49.354Z,34.80
2019-04-23T14:25:40.089Z,34.61
2019-04-23T14:27:33.443Z,34.80
2019-04-23T14:28:35.481Z,35.38
2019-04-23T14:29:38.416Z,35.58
2019-04-23T14:30:37.286Z,35.48
2019-04-23T14:31:28.464Z,35.86
2019-04-23T14:32:43.284Z,36.04
2019-04-23T14:34:35.065Z,36.23
2019-04-23T14:37:45.744Z,36.61
2019-04-23T14:38:40.121Z,36.81
2019-04-23T14:39:32.066Z,36.91
2019-04-23T14:42:47.259Z,37.18
2019-04-23T14:43:40.300Z,37.68
2019-04-23T14:44:31.206Z,37.46
2019-04-23T14:46:02.603Z,37.46
2019-04-23T14:47:40.226Z,38.04
2019-04-23T14:48:38.662Z,38.14
2019-04-23T14:51:39.698Z,38.33
2019-04-23T14:52:40.886Z,38.12
2019-04-23T14:53:33.362Z,38.51
2019-04-23T14:55:17.818Z,38.24
2019-04-23T14:56:35.533Z,38.43
2019-04-23T14:57:42.272Z,38.41
2019-04-23T14:58:47.555Z,38.33
2019-04-23T14:59:29.153Z,38.79
2019-04-23T15:00:49.753Z,38.89
2019-04-23T15:01:36.159Z,38.60
2019-04-23T15:02:46.429Z,39.18
2019-04-23T15:03:42.492Z,39.09
2019-04-23T15:06:43.250Z,39.66
2019-04-23T15:07:34.403Z,39.56
2019-04-23T15:09:53.467Z,40.31
2019-04-23T15:10:41.770Z,40.31
2019-04-23T15:11:52.705Z,40.80
2019-04-23T15:12:39.997Z,40.80
2019-04-23T15:13:39.253Z,41.08
2019-04-23T15:14:46.238Z,40.89
2019-04-23T15:15:39.121Z,41.18
2019-04-23T15:16:39.612Z,41.56
2019-04-23T15:17:33.969Z,41.28
2019-04-23T15:18:44.501Z,41.56
2019-04-23T15:19:40.419Z,41.38
2019-04-23T15:20:39.689Z,41.56
2019-04-23T15:22:42.425Z,41.45
2019-04-23T15:24:37.643Z,41.93
2019-04-23T15:25:53.163Z,42.70
2019-04-23T15:27:45.548Z,42.50
2019-04-23T15:28:13.145Z,42.41
2019-04-23T15:29:26.741Z,42.41
2019-04-23T15:30:41.500Z,42.70
2019-04-23T15:31:46.629Z,42.99
2019-04-23T15:32:44.433Z,42.70
2019-04-23T15:33:48.900Z,43.08
2019-04-23T15:34:30.526Z,42.60
2019-04-23T15:35:59.804Z,43.08
2019-04-23T15:38:43.291Z,43.08
2019-04-23T15:39:37.955Z,44.14
2019-04-23T15:40:32.926Z,44.05
2019-04-23T15:41:38.564Z,45.49
2019-04-23T15:42:44.337Z,45.18
2019-04-23T15:43:41.013Z,45.20
2019-04-23T15:44:38.350Z,45.10
2019-04-23T15:45:42.466Z,45.18
2019-04-23T15:46:39.567Z,45.95
2019-04-23T15:47:39.866Z,45.66
2019-04-23T15:48:44.206Z,45.76
2019-04-23T15:49:35.643Z,45.47
2019-04-23T15:50:48.762Z,45.76
2019-04-23T15:51:51.095Z,45.66
2019-04-23T15:52:44.315Z,45.56
2019-04-23T15:53:30.860Z,45.37
2019-04-23T15:55:44.129Z,45.37
2019-04-23T15:56:44.513Z,45.28